Terminal Aerodrome Forecast
Issued by NWS

Home | Current Version | Previous Version | Text Only | Print | Product List | Glossary Off
Versions: 1 2 3 4 5 6 7 8 9 10 11 12 13 14 15 16 17 18 19 20 21 22 23 24 25 26 27 28 29 30 31 32

000
FTUS43 KBIS 281344 AAA
TAFDIK
TAF AMD
KDIK 281344Z 2814/2912 08010KT 5SM -RA BR OVC003
     FM281500 10009KT P6SM OVC008
     FM281700 10008KT P6SM BKN015
     FM282100 08007KT P6SM BKN040
     FM290400 10004KT P6SM SCT250=

USA.gov is the U.S. government's official web portal to all federal, state and local government web resources and services.